Time;durP1;ratioP1;P1;durP2;ratioP2;P2;SDS_P1;SDS_P2;PMS_P1;PMS_P2;Temp;Humidity;BMP_temperature;BMP_pressure;BME280_temperature;BME280_humidity;BME280_pressure;Samples;Min_cycle;Max_cycle;Signal;HPM_P1;HPM_P2
2021/04/19 00:01:41;;;;;;;33.00;21.27;;;;;;;5.93;79.71;98742.31;5033988;28;20075;-65
2021/04/19 00:04:07;;;;;;;34.17;20.50;;;;;;;5.89;79.88;98747.38;5042278;28;20032;-65
2021/04/19 00:06:33;;;;;;;31.13;20.83;;;;;;;5.89;79.97;98744.84;5035197;28;20053;-65
2021/04/19 00:08:59;;;;;;;36.73;21.43;;;;;;;5.87;79.58;98751.59;5031489;28;20175;-65
2021/04/19 00:11:24;;;;;;;35.60;22.20;;;;;;;5.86;79.99;98744.78;5027775;28;20144;-66
2021/04/19 00:13:50;;;;;;;34.87;21.63;;;;;;;5.87;79.95;98744.81;5033065;28;20029;-65
2021/04/19 00:16:15;;;;;;;27.03;19.33;;;;;;;5.92;79.43;98739.75;5036131;28;20289;-65
2021/04/19 00:18:40;;;;;;;33.97;22.80;;;;;;;5.89;79.69;98738.06;5034052;28;20036;-65
2021/04/19 00:21:06;;;;;;;32.10;20.20;;;;;;;5.88;79.88;98740.59;5029894;28;20045;-65
2021/04/19 00:23:31;;;;;;;36.60;22.07;;;;;;;5.89;79.83;98737.22;5032477;28;20113;-65
2021/04/19 00:25:57;;;;;;;34.43;20.57;;;;;;;5.96;79.63;98731.25;5027738;28;20060;-66
2021/04/19 00:28:22;;;;;;;31.13;19.93;;;;;;;5.94;79.70;98733.81;5028379;28;20036;-65
2021/04/19 00:30:48;;;;;;;31.70;19.63;;;;;;;6.01;79.14;98731.28;5031612;28;20037;-65
2021/04/19 00:33:13;;;;;;;28.90;19.00;;;;;;;5.96;79.56;98729.56;5030856;28;20147;-65
2021/04/19 00:35:40;;;;;;;29.07;18.33;;;;;;;5.92;79.58;98727.88;5031654;28;20025;-65
2021/04/19 00:38:05;;;;;;;31.83;18.97;;;;;;;5.98;79.28;98724.50;5032936;28;20030;-65
2021/04/19 00:40:31;;;;;;;26.30;17.90;;;;;;;5.95;79.27;98715.16;5030326;28;20429;-65
2021/04/19 00:42:57;;;;;;;30.80;19.30;;;;;;;5.98;78.90;98724.50;5031320;28;20368;-65
2021/04/19 00:45:23;;;;;;;25.63;17.97;;;;;;;5.97;78.92;98725.34;5030342;28;20109;-65
2021/04/19 00:47:49;;;;;;;23.80;15.83;;;;;;;5.93;79.24;98716.84;5029439;28;20034;-65
2021/04/19 00:50:18;;;;;;;24.70;15.10;;;;;;;5.87;78.99;98721.06;5033573;28;20029;-65
2021/04/19 00:52:44;;;;;;;26.27;16.83;;;;;;;5.93;78.97;98716.84;5036586;28;20091;-65
2021/04/19 00:55:13;;;;;;;24.03;15.83;;;;;;;5.91;79.50;98721.09;5037853;28;20396;-65
2021/04/19 00:57:38;;;;;;;23.03;15.13;;;;;;;5.95;79.10;98727.03;5032813;28;20028;-65
2021/04/19 01:00:10;;;;;;;25.57;16.17;;;;;;;5.96;78.75;98726.19;5033754;28;20443;-65
2021/04/19 01:02:35;;;;;;;22.23;14.93;;;;;;;5.82;79.21;98726.13;5035160;28;20032;-65
2021/04/19 01:05:01;;;;;;;23.60;15.97;;;;;;;5.83;79.23;98732.06;5032118;28;20029;-64
2021/04/19 01:07:26;;;;;;;25.20;17.23;;;;;;;5.81;79.34;98728.69;5033939;28;20124;-65
2021/04/19 01:09:52;;;;;;;23.50;17.20;;;;;;;5.85;79.17;98728.69;5027998;28;20050;-64
2021/04/19 01:12:17;;;;;;;24.63;15.33;;;;;;;5.84;79.12;98726.13;5028535;28;20041;-65
2021/04/19 01:14:42;;;;;;;25.83;15.67;;;;;;;5.82;79.06;98730.34;5030284;28;20029;-65
2021/04/19 01:17:08;;;;;;;24.97;16.23;;;;;;;5.89;78.94;98727.03;5030849;28;20053;-67
2021/04/19 01:19:34;;;;;;;21.43;14.07;;;;;;;5.76;79.17;98726.13;5031881;28;20025;-66
2021/04/19 01:21:59;;;;;;;23.50;15.97;;;;;;;5.86;79.21;98721.88;5031539;28;20374;-65
2021/04/19 01:24:25;;;;;;;23.07;14.87;;;;;;;5.86;78.85;98717.69;5031719;28;20029;-66
2021/04/19 01:26:50;;;;;;;24.17;15.47;;;;;;;5.88;79.08;98717.69;5025607;28;20072;-65
2021/04/19 01:29:15;;;;;;;21.67;15.53;;;;;;;5.82;78.94;98725.28;5031908;28;20260;-65
2021/04/19 01:31:41;;;;;;;22.93;15.40;;;;;;;5.84;78.97;98715.97;5027319;28;20040;-65
2021/04/19 01:34:06;;;;;;;20.60;13.33;;;;;;;5.81;78.45;98715.97;5033973;28;20072;-65
2021/04/19 01:36:32;;;;;;;21.50;16.13;;;;;;;5.86;78.99;98714.25;5031890;28;20030;-65
2021/04/19 01:38:57;;;;;;;21.90;15.27;;;;;;;5.85;78.56;98710.03;5035807;28;20083;-65
2021/04/19 01:41:22;;;;;;;22.53;16.50;;;;;;;5.91;78.64;98707.50;5033865;28;20043;-65
2021/04/19 01:43:48;;;;;;;24.27;15.90;;;;;;;5.91;78.59;98722.78;5034322;28;20033;-65
2021/04/19 01:46:13;;;;;;;22.67;15.40;;;;;;;5.90;78.79;98721.06;5031555;28;20304;-65
2021/04/19 01:48:39;;;;;;;20.80;14.63;;;;;;;5.90;78.49;98714.28;5031822;28;20298;-65
2021/04/19 01:51:04;;;;;;;21.93;15.73;;;;;;;5.90;79.17;98714.28;5030642;28;20056;-65
2021/04/19 01:53:30;;;;;;;25.07;17.17;;;;;;;5.86;79.16;98711.72;5031613;28;20025;-65
2021/04/19 01:55:55;;;;;;;22.37;14.97;;;;;;;5.85;79.27;98707.50;5030411;28;20112;-66
2021/04/19 01:58:24;;;;;;;25.23;15.87;;;;;;;5.89;79.04;98709.22;5028285;28;20024;-65
2021/04/19 02:01:00;;;;;;;23.77;15.00;;;;;;;5.95;78.81;98706.66;5048860;28;20040;-65
2021/04/19 02:03:39;;;;;;;23.43;16.70;;;;;;;5.92;78.89;98706.66;5030973;28;20065;-65
2021/04/19 02:06:23;;;;;;;21.57;14.83;;;;;;;5.88;79.35;98705.81;5027895;28;20108;-65
2021/04/19 02:09:00;;;;;;;23.30;15.67;;;;;;;5.90;78.93;98699.03;5030399;28;20037;-65
2021/04/19 02:11:43;;;;;;;27.33;17.23;;;;;;;5.87;79.46;98701.56;5034740;28;20088;-65
2021/04/19 02:14:54;;;;;;;22.67;16.20;;;;;;;5.94;78.74;98699.91;5026634;28;20037;-65
2021/04/19 02:17:34;;;;;;;21.60;14.33;;;;;;;5.95;78.86;98706.66;5008584;28;20080;-65
2021/04/19 02:20:20;;;;;;;26.57;18.47;;;;;;;5.95;78.79;98710.06;5011026;28;20393;-65
2021/04/19 02:22:54;;;;;;;25.60;16.87;;;;;;;5.93;78.62;98704.13;5011663;28;20034;-65
2021/04/19 02:25:25;;;;;;;23.43;16.43;;;;;;;5.90;78.89;98700.72;4995435;28;20283;-65
2021/04/19 02:27:56;;;;;;;26.23;18.20;;;;;;;5.89;79.07;98706.69;5013354;28;20443;-65
2021/04/19 02:30:30;;;;;;;26.83;19.10;;;;;;;5.91;78.63;98704.97;5013584;28;20121;-65
2021/04/19 02:32:56;;;;;;;27.43;18.93;;;;;;;5.87;79.06;98700.72;5013191;28;20073;-65
2021/04/19 02:35:23;;;;;;;24.67;17.13;;;;;;;5.94;78.95;98697.34;5007690;28;20042;-65
2021/04/19 02:37:52;;;;;;;29.93;19.97;;;;;;;5.94;78.70;98707.53;5009736;28;20404;-65
2021/04/19 02:40:18;;;;;;;25.87;18.07;;;;;;;5.88;79.21;98698.19;5009326;28;20053;-65
2021/04/19 02:42:50;;;;;;;27.93;18.37;;;;;;;5.98;78.85;98701.59;5014011;28;20088;-65
2021/04/19 02:45:16;;;;;;;28.70;19.80;;;;;;;5.90;78.95;98708.34;5008021;28;20327;-65
2021/04/19 02:47:45;;;;;;;28.40;19.47;;;;;;;5.98;79.16;98704.16;5011382;28;20042;-65
2021/04/19 02:50:13;;;;;;;27.47;17.97;;;;;;;6.04;79.17;98701.56;5016716;28;20037;-65
2021/04/19 02:52:40;;;;;;;27.87;19.80;;;;;;;6.02;79.21;98703.28;5011916;28;20034;-65
2021/04/19 02:55:06;;;;;;;29.63;19.73;;;;;;;6.06;79.45;98691.41;5028968;28;20298;-65
2021/04/19 02:57:42;;;;;;;28.90;19.13;;;;;;;6.04;78.92;98683.75;5037577;28;20121;-65
2021/04/19 03:00:07;;;;;;;;;;;;;;;6.00;79.16;98699.88;5027530;28;20037;-65
2021/04/19 03:02:35;;;;;;;28.00;19.20;;;;;;;5.92;79.39;98693.94;5033484;28;19917;-65
2021/04/19 03:05:02;;;;;;;26.97;18.50;;;;;;;5.93;79.13;98698.19;5027757;28;20028;-65
2021/04/19 03:07:43;;;;;;;30.37;19.67;;;;;;;5.85;79.49;98698.16;5032690;28;20049;-65
2021/04/19 03:10:12;;;;;;;30.03;18.77;;;;;;;5.92;78.94;98691.41;5034154;28;20025;-65
2021/04/19 03:12:41;;;;;;;29.07;18.70;;;;;;;5.87;78.98;98695.63;5034004;28;20057;-65
2021/04/19 03:15:10;;;;;;;26.03;18.30;;;;;;;5.83;79.26;98696.44;5031927;28;20080;-65
2021/04/19 03:17:36;;;;;;;27.00;17.90;;;;;;;5.85;79.25;98688.00;5032041;28;20029;-65
2021/04/19 03:20:09;;;;;;;26.97;17.97;;;;;;;5.91;78.96;98689.69;5039205;28;20041;-65
2021/04/19 03:22:36;;;;;;;27.07;18.53;;;;;;;5.84;78.97;98696.47;5031847;28;20060;-65
2021/04/19 03:25:04;;;;;;;27.50;18.40;;;;;;;5.90;79.01;98690.53;5034702;28;20025;-65
2021/04/19 03:27:31;;;;;;;29.17;19.50;;;;;;;5.84;79.27;98682.88;5031587;28;20375;-65
2021/04/19 03:29:57;;;;;;;27.37;18.47;;;;;;;5.85;79.11;98674.41;5031948;28;20029;-65
2021/04/19 03:32:27;;;;;;;27.87;19.47;;;;;;;5.95;79.17;98673.59;5027496;28;20044;-65
2021/04/19 03:34:52;;;;;;;28.70;18.40;;;;;;;5.91;79.12;98666.81;5033387;28;20386;-65
2021/04/19 03:37:22;;;;;;;27.50;19.07;;;;;;;5.89;79.21;98671.06;5033820;28;20045;-65
2021/04/19 03:39:56;;;;;;;28.63;19.13;;;;;;;5.94;79.50;98670.19;5036817;28;20438;-65
2021/04/19 03:42:24;;;;;;;28.00;18.57;;;;;;;5.86;79.50;98682.06;5031863;28;20079;-65
2021/04/19 03:44:51;;;;;;;29.73;19.40;;;;;;;5.84;79.63;98683.75;5030658;28;20032;-65
2021/04/19 03:47:18;;;;;;;27.57;18.83;;;;;;;5.85;79.84;98676.97;5032570;28;20091;-65
2021/04/19 03:49:49;;;;;;;28.03;19.17;;;;;;;5.88;79.73;98682.94;5042651;28;20037;-65
2021/04/19 03:52:19;;;;;;;30.17;19.13;;;;;;;5.86;79.81;98676.97;5032614;28;20106;-65
2021/04/19 03:54:47;;;;;;;29.97;19.93;;;;;;;5.96;79.61;98671.06;5037102;28;20059;-65
2021/04/19 03:57:19;;;;;;;32.30;19.60;;;;;;;5.96;79.73;98671.06;5038708;28;20083;-65
2021/04/19 03:59:51;;;;;;;27.07;18.43;;;;;;;5.99;79.34;98675.28;5030442;28;20105;-64
2021/04/19 04:02:17;;;;;;;30.13;20.47;;;;;;;5.92;79.55;98688.84;5035144;28;20044;-65
2021/04/19 04:04:45;;;;;;;30.63;19.87;;;;;;;5.89;79.98;98683.78;5029222;28;20026;-65
2021/04/19 04:07:13;;;;;;;30.03;18.67;;;;;;;5.89;79.65;98684.63;5034699;28;20037;-65
2021/04/19 04:09:41;;;;;;;29.80;20.63;;;;;;;5.83;80.31;98689.66;5035604;28;20061;-65
2021/04/19 04:12:08;;;;;;;31.27;21.13;;;;;;;5.87;80.35;98688.84;5034842;28;20105;-65
2021/04/19 04:14:35;;;;;;;32.10;19.73;;;;;;;5.82;79.87;98697.28;5029706;28;20031;-65
2021/04/19 04:17:01;;;;;;;35.47;20.90;;;;;;;5.83;80.29;98691.38;5031313;28;20104;-65
2021/04/19 04:19:26;;;;;;;32.67;19.80;;;;;;;5.84;80.71;98693.06;5030092;28;20121;-65
2021/04/19 04:21:52;;;;;;;31.33;20.47;;;;;;;5.89;80.31;98691.41;5029411;28;20044;-65
2021/04/19 04:24:19;;;;;;;30.47;18.73;;;;;;;5.86;80.07;98688.81;5031078;28;20361;-65
2021/04/19 04:26:44;;;;;;;31.53;20.93;;;;;;;5.86;80.23;98692.25;5027054;28;20091;-65
2021/04/19 04:29:10;;;;;;;32.33;20.67;;;;;;;5.89;79.94;98689.72;5029947;28;20306;-65
2021/04/19 04:31:35;;;;;;;28.63;19.03;;;;;;;5.94;79.87;98692.28;5031806;28;20117;-65
2021/04/19 04:34:01;;;;;;;29.77;19.53;;;;;;;5.97;79.81;98689.72;5029399;28;20025;-65
2021/04/19 04:36:26;;;;;;;28.33;19.43;;;;;;;5.94;79.58;98694.81;5031513;28;20030;-65
2021/04/19 04:38:52;;;;;;;32.87;20.13;;;;;;;5.94;80.06;98689.72;5035250;28;20389;-65
2021/04/19 04:41:17;;;;;;;30.77;20.77;;;;;;;6.00;79.56;98673.59;5034765;28;20067;-65
2021/04/19 04:43:46;;;;;;;32.43;20.97;;;;;;;6.16;79.23;98677.81;5029054;28;20117;-65
2021/04/19 04:46:33;;;;;;;32.73;19.50;;;;;;;6.29;78.73;98682.03;5032657;28;20037;-65
2021/04/19 04:49:25;;;;;;;28.03;18.77;;;;;;;6.30;78.24;98687.16;5038963;28;20099;-65
2021/04/19 04:51:55;;;;;;;28.53;19.33;;;;;;;6.32;78.15;98682.06;5034160;28;20037;-65
2021/04/19 04:54:22;;;;;;;27.90;18.33;;;;;;;6.20;78.26;98682.91;5028351;28;20067;-65
2021/04/19 04:56:55;;;;;;;27.47;18.40;;;;;;;6.28;77.96;98678.66;5032483;28;20116;-65
2021/04/19 04:59:23;;;;;;;27.70;19.40;;;;;;;6.26;78.15;98679.50;5032168;28;20079;-65
2021/04/19 05:01:50;;;;;;;26.67;16.97;;;;;;;6.36;77.71;98686.31;5031247;28;20128;-65
2021/04/19 05:04:16;;;;;;;25.70;16.43;;;;;;;6.27;77.92;98681.22;5032351;28;20112;-65
2021/04/19 05:06:43;;;;;;;28.87;18.63;;;;;;;6.39;77.88;98679.50;5034505;28;20173;-65
2021/04/19 05:09:10;;;;;;;26.33;17.47;;;;;;;6.43;77.55;98688.84;5035202;28;20063;-65
2021/04/19 05:11:38;;;;;;;25.47;17.10;;;;;;;6.40;77.42;98681.22;5026046;28;20029;-65
2021/04/19 05:14:04;;;;;;;23.60;16.17;;;;;;;6.37;77.28;98672.69;5032167;28;20088;-65
2021/04/19 05:16:30;;;;;;;28.23;18.50;;;;;;;6.45;77.14;98683.72;5036882;28;20636;-65
2021/04/19 05:19:03;;;;;;;25.83;18.90;;;;;;;6.50;76.81;98681.16;5034754;28;20029;-65
2021/04/19 05:21:29;;;;;;;25.53;16.80;;;;;;;6.50;77.07;98681.16;5027002;28;20383;-65
2021/04/19 05:23:55;;;;;;;26.60;17.17;;;;;;;6.54;76.66;98686.25;5035274;28;20043;-65
2021/04/19 05:26:21;;;;;;;29.30;18.03;;;;;;;6.52;76.95;98682.03;5028886;28;20117;-65
2021/04/19 05:28:47;;;;;;;28.93;19.47;;;;;;;6.64;76.61;98689.63;5036917;28;20046;-66
2021/04/19 05:31:13;;;;;;;26.50;17.57;;;;;;;6.59;76.48;98691.34;5031261;28;20038;-66
2021/04/19 05:33:39;;;;;;;26.87;17.90;;;;;;;6.72;76.07;98688.75;5030574;28;20048;-66
2021/04/19 05:36:10;;;;;;;25.03;17.90;;;;;;;6.64;76.25;98694.72;5028964;28;20036;-67
2021/04/19 05:38:36;;;;;;;28.80;18.07;;;;;;;6.69;76.10;98685.38;5032319;28;20052;-66
2021/04/19 05:41:03;;;;;;;27.17;17.80;;;;;;;6.75;76.01;98696.38;5032238;28;20390;-65
2021/04/19 05:43:29;;;;;;;31.13;18.77;;;;;;;6.75;76.12;98680.25;5031181;28;20045;-67
2021/04/19 05:45:56;;;;;;;25.43;16.10;;;;;;;6.81;75.33;98693.84;5028549;28;20040;-65
2021/04/19 05:48:21;;;;;;;25.57;16.97;;;;;;;6.79;75.65;98690.41;5029046;28;20037;-65
2021/04/19 05:50:49;;;;;;;25.07;17.23;;;;;;;6.88;75.79;98687.00;5029390;28;20362;-67
2021/04/19 05:53:15;;;;;;;29.17;17.50;;;;;;;6.85;75.88;98695.50;5029060;28;20267;-62
2021/04/19 05:55:43;;;;;;;26.93;16.53;;;;;;;6.82;75.42;98684.50;5030773;28;20029;-62
2021/04/19 05:58:44;;;;;;;27.23;18.23;;;;;;;6.81;74.99;98687.88;5029708;28;20056;-63
2021/04/19 06:01:12;;;;;;;28.03;18.90;;;;;;;6.80;75.44;98692.13;5023629;28;20064;-63
2021/04/19 06:03:38;;;;;;;26.63;17.97;;;;;;;6.88;75.17;98687.00;5031990;28;20090;-64
2021/04/19 06:06:15;;;;;;;28.53;19.20;;;;;;;6.97;74.60;98688.66;5028780;28;20025;-63
2021/04/19 06:08:50;;;;;;;28.30;17.83;;;;;;;7.01;74.83;98678.47;5027826;28;20663;-63
2021/04/19 06:11:41;;;;;;;29.00;19.00;;;;;;;7.02;74.93;98682.72;5024474;28;20041;-62
2021/04/19 06:14:11;;;;;;;26.50;17.57;;;;;;;7.19;74.50;98696.22;5031703;28;20037;-59
2021/04/19 06:16:38;;;;;;;26.87;19.03;;;;;;;7.16;74.24;98690.31;5028824;28;20037;-61
2021/04/19 06:19:10;;;;;;;29.57;19.50;;;;;;;7.24;74.25;98686.00;5028906;28;20125;-66
2021/04/19 06:21:37;;;;;;;33.60;18.73;;;;;;;7.28;74.18;98695.34;5026737;28;20422;-64
2021/04/19 06:24:04;;;;;;;28.23;19.00;;;;;;;7.33;73.69;98683.41;5025542;28;20064;-64
2021/04/19 06:26:35;;;;;;;28.70;18.53;;;;;;;7.33;73.77;98689.38;5028838;28;20418;-64
2021/04/19 06:29:01;;;;;;;32.47;19.17;;;;;;;7.33;73.54;98686.81;5028015;28;20105;-64
2021/04/19 06:31:27;;;;;;;29.50;18.80;;;;;;;7.38;73.83;98685.94;5028775;28;20069;-63
2021/04/19 06:34:11;;;;;;;29.60;20.20;;;;;;;7.46;74.09;98689.31;5023458;28;20076;-66
2021/04/19 06:36:38;;;;;;;33.20;19.37;;;;;;;7.44;74.12;98693.53;5022253;28;20040;-62
2021/04/19 06:39:06;;;;;;;26.93;18.00;;;;;;;7.31;74.67;98682.56;5031449;28;20048;-63
2021/04/19 06:41:32;;;;;;;31.23;18.60;;;;;;;7.33;74.80;98691.91;5033612;28;20044;-63
2021/04/19 06:43:59;;;;;;;32.17;20.20;;;;;;;7.42;74.88;98692.72;5029737;28;20321;-62
2021/04/19 06:46:26;;;;;;;32.00;19.87;;;;;;;7.37;74.87;98695.31;5032096;28;20037;-63
2021/04/19 06:48:53;;;;;;;35.23;19.63;;;;;;;7.40;75.08;98692.72;5026804;28;20497;-64
2021/04/19 06:51:20;;;;;;;30.03;18.60;;;;;;;7.35;74.70;98687.66;5026546;28;20026;-64
2021/04/19 06:53:45;;;;;;;29.53;18.87;;;;;;;7.40;74.62;98697.81;5027078;28;20029;-64
2021/04/19 06:56:11;;;;;;;30.47;20.07;;;;;;;7.52;74.02;98689.25;5029036;28;20052;-64
2021/04/19 06:58:39;;;;;;;37.27;20.30;;;;;;;7.44;74.03;98689.28;5028961;28;20034;-64
2021/04/19 07:01:05;;;;;;;29.37;18.27;;;;;;;7.62;73.51;98694.31;5024412;28;20035;-65
2021/04/19 07:03:31;;;;;;;33.17;21.57;;;;;;;7.41;74.16;98696.13;5029132;28;20263;-66
2021/04/19 07:05:58;;;;;;;31.97;21.20;;;;;;;7.59;73.76;98696.88;5034009;28;20020;-64
2021/04/19 07:08:33;;;;;;;33.13;21.57;;;;;;;7.56;73.70;98690.91;5031430;28;20058;-64
2021/04/19 07:11:02;;;;;;;31.05;19.13;;;;;;;7.41;74.17;98696.97;5027082;28;20026;-64
2021/04/19 07:13:29;;;;;;;32.73;20.03;;;;;;;7.44;74.39;98698.66;5028964;28;20025;-64
2021/04/19 07:15:54;;;;;;;30.23;19.70;;;;;;;7.46;73.85;98691.84;5028066;28;20063;-65
2021/04/19 07:18:20;;;;;;;28.80;19.10;;;;;;;7.48;74.10;98690.13;5031542;28;20448;-62
2021/04/19 07:20:46;;;;;;;37.17;20.63;;;;;;;7.53;73.43;98678.19;5030533;28;20041;-62
2021/04/19 07:23:13;;;;;;;31.90;18.43;;;;;;;7.54;73.06;98679.91;5030116;28;20294;-64
2021/04/19 07:25:38;;;;;;;34.20;21.80;;;;;;;7.56;73.29;98684.13;5027389;28;20310;-65
2021/04/19 07:28:05;;;;;;;31.63;20.67;;;;;;;7.49;73.22;98695.22;5029276;28;20037;-64
2021/04/19 07:30:30;;;;;;;33.47;21.53;;;;;;;7.63;73.39;98682.41;5029920;28;20075;-61
2021/04/19 07:32:56;;;;;;;34.43;21.80;;;;;;;7.60;72.79;98687.50;5032731;28;20382;-61
2021/04/19 07:35:26;;;;;;;31.90;20.03;;;;;;;7.67;73.50;98689.16;5029752;28;20030;-61
2021/04/19 07:37:59;;;;;;;38.13;21.17;;;;;;;7.56;73.88;98683.28;5034183;28;20398;-61
2021/04/19 07:40:29;;;;;;;33.30;20.87;;;;;;;7.73;73.30;98686.56;5030682;28;20079;-61
2021/04/19 07:43:16;;;;;;;30.33;18.23;;;;;;;7.70;73.36;98673.84;5037598;28;20112;-64
2021/04/19 07:45:58;;;;;;;34.93;19.90;;;;;;;7.77;73.16;98683.13;5033376;28;20159;-64
2021/04/19 07:48:34;;;;;;;33.73;20.07;;;;;;;7.86;72.65;98675.41;5030760;28;20032;-64
2021/04/19 07:51:33;;;;;;;33.37;20.80;;;;;;;7.82;72.16;98686.50;5031099;28;20372;-64
2021/04/19 07:54:11;;;;;;;29.57;19.57;;;;;;;7.57;72.95;98680.72;5032658;28;20025;-64
2021/04/19 07:57:00;;;;;;;34.33;19.93;;;;;;;7.47;73.77;98685.91;5032758;28;20401;-64
2021/04/19 07:59:33;;;;;;;31.93;19.97;;;;;;;7.64;73.52;98687.47;5028046;28;20347;-62
2021/04/19 08:02:04;;;;;;;34.10;20.47;;;;;;;7.66;73.19;98675.56;5032759;28;20033;-62
2021/04/19 08:04:31;;;;;;;34.87;20.20;;;;;;;7.70;72.90;98678.94;5027144;28;20045;-63
2021/04/19 08:06:57;;;;;;;31.87;20.97;;;;;;;7.72;72.39;98688.25;5033727;28;20104;-61
2021/04/19 08:09:28;;;;;;;33.07;20.77;;;;;;;7.71;72.68;98673.84;5030358;28;20034;-61
2021/04/19 08:11:57;;;;;;;39.20;20.97;;;;;;;7.70;72.85;98676.38;5037479;28;20040;-61
2021/04/19 08:14:28;;;;;;;34.30;20.37;;;;;;;7.80;73.16;98671.22;5032384;28;20108;-61
2021/04/19 08:17:07;;;;;;;30.97;20.67;;;;;;;7.92;72.10;98675.38;5034998;28;20037;-61
2021/04/19 08:19:35;;;;;;;35.10;21.27;;;;;;;8.04;71.90;98669.31;5031394;28;20021;-61
2021/04/19 08:22:16;;;;;;;33.20;19.63;;;;;;;8.03;71.71;98673.56;5030804;28;20075;-61
2021/04/19 08:24:42;;;;;;;36.17;22.03;;;;;;;8.04;71.65;98666.75;5031916;28;20029;-61
2021/04/19 08:27:07;;;;;;;35.03;19.80;;;;;;;8.12;70.68;98670.94;5034703;28;20032;-61
2021/04/19 08:29:40;;;;;;;30.37;18.57;;;;;;;8.19;70.23;98674.28;5030597;28;20033;-61
2021/04/19 08:32:09;;;;;;;32.10;20.93;;;;;;;8.19;70.70;98679.38;5033060;28;20060;-62
2021/04/19 08:34:35;;;;;;;32.87;19.93;;;;;;;8.27;70.19;98668.25;5035676;28;20418;-62
2021/04/19 08:37:03;;;;;;;32.63;20.03;;;;;;;8.46;70.04;98671.50;5031287;28;20105;-61
2021/04/19 08:39:30;;;;;;;35.33;20.13;;;;;;;8.60;69.46;98669.66;5032135;28;20030;-62
2021/04/19 08:41:59;;;;;;;32.33;19.63;;;;;;;8.67;70.29;98663.63;5033070;28;20021;-62
2021/04/19 08:44:25;;;;;;;32.97;19.53;;;;;;;8.79;68.82;98665.19;5029792;28;20030;-61
2021/04/19 08:46:50;;;;;;;37.23;20.77;;;;;;;8.96;67.43;98665.00;5029575;28;20037;-64
2021/04/19 08:49:16;;;;;;;31.77;20.00;;;;;;;9.18;66.39;98671.53;5031497;28;20736;-64
2021/04/19 08:51:41;;;;;;;33.03;21.80;;;;;;;9.08;67.02;98675.09;5037218;28;20030;-64
2021/04/19 08:54:07;;;;;;;26.87;19.83;;;;;;;9.14;66.90;98669.88;5029792;28;20049;-64
2021/04/19 08:56:33;;;;;;;30.23;19.63;;;;;;;9.13;67.64;98670.75;5029345;28;20018;-64
2021/04/19 08:59:01;;;;;;;32.30;20.73;;;;;;;9.14;66.74;98668.19;5031444;28;20030;-64
2021/04/19 09:01:29;;;;;;;34.87;23.20;;;;;;;9.00;66.48;98669.19;5032706;28;20088;-64
2021/04/19 09:04:05;;;;;;;34.33;22.10;;;;;;;8.96;66.29;98662.44;5032363;28;20113;-62
2021/04/19 09:06:40;;;;;;;34.27;21.43;;;;;;;8.96;66.52;98668.41;5022976;28;20491;-64
2021/04/19 09:09:07;;;;;;;34.40;21.40;;;;;;;8.97;67.06;98664.97;5031890;28;20299;-63
2021/04/19 09:11:32;;;;;;;31.47;19.27;;;;;;;9.04;66.32;98664.03;5034973;28;20025;-63
2021/04/19 09:14:10;;;;;;;29.40;19.53;;;;;;;9.11;66.32;98669.94;5033683;28;20030;-63
2021/04/19 09:16:41;;;;;;;35.87;21.70;;;;;;;9.31;65.85;98670.50;5027205;28;20036;-64
2021/04/19 09:19:07;;;;;;;31.73;21.20;;;;;;;9.29;66.64;98661.19;5031632;28;20041;-64
2021/04/19 09:21:47;;;;;;;31.77;20.63;;;;;;;9.95;64.86;98651.66;5029632;28;20022;-63
2021/04/19 09:24:15;;;;;;;31.40;20.77;;;;;;;9.94;63.41;98652.50;5032050;28;20124;-64
2021/04/19 09:27:07;;;;;;;34.63;21.90;;;;;;;10.06;63.52;98663.41;5028875;28;20025;-63
2021/04/19 09:29:34;;;;;;;31.10;20.70;;;;;;;10.18;64.01;98653.88;5027828;28;20567;-64
2021/04/19 09:32:18;;;;;;;30.23;20.57;;;;;;;10.18;63.72;98651.31;5027881;28;20339;-63
2021/04/19 09:34:47;;;;;;;30.17;19.30;;;;;;;10.32;62.10;98665.56;5039098;28;20047;-63
2021/04/19 09:37:18;;;;;;;30.90;20.57;;;;;;;10.45;62.16;98649.09;5033092;28;20433;-63
2021/04/19 09:39:57;;;;;;;33.80;21.67;;;;;;;10.33;62.59;98648.47;5035418;28;20083;-63
2021/04/19 09:43:08;;;;;;;34.83;20.73;;;;;;;10.56;61.87;98651.47;5042064;28;20034;-63
2021/04/19 09:45:45;;;;;;;32.27;20.73;;;;;;;10.88;60.56;98644.00;5029031;28;20021;-63
2021/04/19 09:48:30;;;;;;;32.43;22.13;;;;;;;10.68;61.37;98646.13;5027593;28;20037;-64
2021/04/19 09:50:59;;;;;;;28.25;18.33;;;;;;;10.45;60.95;98648.25;5030454;28;20037;-63
2021/04/19 09:53:26;;;;;;;30.80;20.17;;;;;;;10.33;61.12;98645.91;5031988;28;20026;-62
2021/04/19 09:55:51;;;;;;;32.83;21.75;;;;;;;10.85;60.92;98644.06;5029155;28;20386;-63
2021/04/19 09:58:20;;;;;;;30.57;20.47;;;;;;;10.63;60.72;98632.53;5030891;28;20040;-63
2021/04/19 10:01:00;;;;;;;32.50;21.60;;;;;;;10.71;60.30;98650.31;5030326;28;20100;-62
2021/04/19 10:03:26;;;;;;;32.23;21.17;;;;;;;10.75;60.14;98646.81;5033931;28;20112;-63
2021/04/19 10:05:54;;;;;;;29.80;19.63;;;;;;;10.80;59.26;98650.16;5026880;28;20029;-63
2021/04/19 10:08:22;;;;;;;27.27;20.13;;;;;;;10.40;60.23;98642.34;5028145;28;20077;-63
2021/04/19 10:10:52;;;;;;;27.80;18.57;;;;;;;10.50;60.66;98638.75;5031621;28;20022;-63
2021/04/19 10:13:39;;;;;;;29.43;20.27;;;;;;;10.85;59.72;98641.50;5030797;28;20283;-63
2021/04/19 10:16:04;;;;;;;29.63;17.97;;;;;;;10.58;59.73;98641.16;5028940;28;20032;-62
2021/04/19 10:18:35;;;;;;;31.20;19.95;;;;;;;10.92;59.85;98635.34;5030023;28;20021;-63
2021/04/19 10:21:02;;;;;;;30.77;21.00;;;;;;;10.85;59.32;98628.69;5027297;28;20048;-63
2021/04/19 10:23:32;;;;;;;26.95;18.42;;;;;;;11.10;58.50;98626.44;5035016;28;20025;-63
2021/04/19 10:25:58;;;;;;;24.17;18.75;;;;;;;10.88;59.09;98632.88;5030853;28;20029;-63
2021/04/19 10:28:32;;;;;;;27.40;19.73;;;;;;;11.09;58.89;98632.44;5036540;28;20378;-63
2021/04/19 10:31:24;;;;;;;28.58;20.77;;;;;;;11.09;58.91;98629.88;5026962;28;20703;-63
2021/04/19 10:33:53;;;;;;;27.67;18.95;;;;;;;11.11;58.68;98629.84;5031851;28;20045;-63
2021/04/19 10:36:24;;;;;;;26.10;18.42;;;;;;;10.92;58.37;98617.41;5029672;28;20029;-63
2021/04/19 10:38:51;;;;;;;27.65;19.65;;;;;;;11.13;58.40;98626.38;5031032;28;20041;-63
2021/04/19 10:41:34;;;;;;;26.67;19.20;;;;;;;11.03;58.23;98635.16;5027145;28;20040;-63
2021/04/19 10:44:01;;;;;;;27.90;20.17;;;;;;;11.13;58.43;98630.66;5031410;28;20337;-63
2021/04/19 10:46:32;;;;;;;28.23;19.50;;;;;;;11.29;58.17;98625.16;5026833;28;20060;-62
2021/04/19 10:49:00;;;;;;;26.77;18.60;;;;;;;11.00;58.08;98625.78;5029627;28;20029;-62
2021/04/19 10:51:49;;;;;;;28.73;20.10;;;;;;;11.13;58.60;98617.81;5027616;28;20108;-63
2021/04/19 10:54:15;;;;;;;29.85;19.52;;;;;;;11.19;58.57;98618.56;5027178;28;20083;-63
2021/04/19 10:56:42;;;;;;;28.58;20.15;;;;;;;11.39;58.38;98618.09;5031172;28;20029;-63
2021/04/19 10:59:09;;;;;;;28.38;20.02;;;;;;;11.28;59.25;98627.78;5029063;28;20029;-63
2021/04/19 11:01:37;;;;;;;26.85;19.60;;;;;;;11.08;59.46;98612.78;5029635;28;20029;-63
2021/04/19 11:04:05;;;;;;;29.45;20.73;;;;;;;10.54;60.93;98622.44;5028893;28;20454;-63
2021/04/19 11:06:31;;;;;;;27.33;19.98;;;;;;;10.51;60.45;98617.38;5030624;28;20398;-63
2021/04/19 11:08:59;;;;;;;28.60;19.65;;;;;;;10.50;60.85;98623.38;5031205;28;20037;-61
2021/04/19 11:11:38;;;;;;;30.50;19.92;;;;;;;10.88;59.80;98607.25;5034432;28;20029;-63
2021/04/19 11:14:14;;;;;;;25.77;18.38;;;;;;;10.90;58.79;98614.03;5034010;28;20267;-62
2021/04/19 11:16:51;;;;;;;28.63;19.42;;;;;;;10.74;58.98;98624.63;5036367;28;20370;-63
2021/04/19 11:19:44;;;;;;;30.53;19.50;;;;;;;10.69;58.75;98611.91;5034266;28;20030;-63
2021/04/19 11:22:27;;;;;;;29.58;20.38;;;;;;;10.66;59.77;98611.94;5034406;28;20021;-63
2021/04/19 11:25:12;;;;;;;27.70;18.93;;;;;;;10.42;60.00;98618.41;5035041;28;20032;-63
2021/04/19 11:27:38;;;;;;;29.80;19.43;;;;;;;10.17;60.95;98616.31;5036525;28;20278;-64
2021/04/19 11:30:27;;;;;;;25.07;18.70;;;;;;;10.00;61.89;98617.41;5035983;28;20025;-63
2021/04/19 11:33:12;;;;;;;25.83;19.63;;;;;;;9.88;62.08;98615.06;5032834;28;20036;-63
2021/04/19 11:35:40;;;;;;;28.58;19.08;;;;;;;9.69;62.19;98628.16;5032384;28;20026;-62
2021/04/19 11:38:08;;;;;;;29.53;19.00;;;;;;;9.79;62.33;98619.47;5034987;28;20076;-63